Time;durP1;ratioP1;P1;durP2;ratioP2;P2;SDS_P1;SDS_P2;PMS_P1;PMS_P2;Temp;Humidity;BMP_temperature;BMP_pressure;BME280_temperature;BME280_humidity;BME280_pressure;Samples;Min_cycle;Max_cycle;Signal;HPM_P1;HPM_P2
2021/07/22 00:00:31;;;;;;;6.78;5.25;;;;;;;;;;6348156;22;20141;-64
2021/07/22 00:02:57;;;;;;;7.63;5.10;;;;;;;;;;6347692;22;20138;-64
2021/07/22 00:05:23;;;;;;;7.78;5.45;;;;;;;;;;6350412;22;20157;-65
2021/07/22 00:07:49;;;;;;;8.30;5.53;;;;;;;;;;6379282;22;20136;-65
2021/07/22 00:10:16;;;;;;;9.88;5.97;;;;;;;;;;6379218;22;20182;-64
2021/07/22 00:12:42;;;;;;;7.85;5.63;;;;;;;;;;6379017;22;20254;-65
2021/07/22 00:15:08;;;;;;;10.20;5.53;;;;;;;;;;6377687;22;20145;-64
2021/07/22 00:17:34;;;;;;;8.15;6.30;;;;;;;;;;6372181;22;20416;-65
2021/07/22 00:20:00;;;;;;;7.30;5.68;;;;;;;;;;6371859;22;20146;-64
2021/07/22 00:22:27;;;;;;;8.95;5.68;;;;;;;;;;6371735;22;20152;-64
2021/07/22 00:24:53;;;;;;;8.77;5.57;;;;;;;;;;6344099;22;20201;-64
2021/07/22 00:27:19;;;;;;;9.38;5.72;;;;;;;;;;6371591;22;20134;-64
2021/07/22 00:29:45;;;;;;;7.53;5.50;;;;;;;;;;6371671;22;20134;-64
2021/07/22 00:32:11;;;;;;;10.07;6.30;;;;;;;;;;6371534;22;20145;-64
2021/07/22 00:34:37;;;;;;;7.72;5.82;;;;;;;;;;6371986;22;20142;-65
2021/07/22 00:37:03;;;;;;;8.23;5.57;;;;;;;;;;6371429;22;20141;-65
2021/07/22 00:39:29;;;;;;;8.85;5.55;;;;;;;;;;6371522;22;20144;-64
2021/07/22 00:41:55;;;;;;;7.18;5.10;;;;;;;;;;6371417;22;20141;-65
2021/07/22 00:44:21;;;;;;;7.88;5.50;;;;;;;;;;6371228;22;20218;-65
2021/07/22 00:46:47;;;;;;;9.43;5.97;;;;;;;;;;6371397;22;20445;-65
2021/07/22 00:49:14;;;;;;;10.18;6.22;;;;;;;;;;6371292;22;20144;-65
2021/07/22 00:51:41;;;;;;;10.07;5.97;;;;;;;;;;6371349;22;20141;-64
2021/07/22 00:54:07;;;;;;;9.68;6.22;;;;;;;;;;6371163;22;20216;-65
2021/07/22 00:56:34;;;;;;;11.05;6.88;;;;;;;;;;6371349;22;20621;-65
2021/07/22 00:59:01;;;;;;;9.20;6.20;;;;;;;;;;6371538;22;20145;-65
2021/07/22 01:01:27;;;;;;;9.15;5.55;;;;;;;;;;6371215;22;20141;-65
2021/07/22 01:03:52;;;;;;;9.68;6.35;;;;;;;;;;6371372;22;20180;-65
2021/07/22 01:06:18;;;;;;;8.32;6.00;;;;;;;;;;6370949;22;20150;-65
2021/07/22 01:08:44;;;;;;;10.82;6.28;;;;;;;;;;6371102;22;20134;-65
2021/07/22 01:11:10;;;;;;;10.15;6.18;;;;;;;;;;6371080;22;20466;-65
2021/07/22 01:13:36;;;;;;;9.18;6.50;;;;;;;;;;6370881;22;20138;-65
2021/07/22 01:16:02;;;;;;;8.55;6.07;;;;;;;;;;6371015;22;20142;-65
2021/07/22 01:18:28;;;;;;;10.95;6.75;;;;;;;;;;6370802;22;20145;-65
2021/07/22 01:20:54;;;;;;;10.98;6.50;;;;;;;;;;6370794;22;20172;-65
2021/07/22 01:23:20;;;;;;;8.57;6.38;;;;;;;;;;6370598;22;20624;-65
2021/07/22 01:25:46;;;;;;;11.50;7.22;;;;;;;;;;6370727;22;20425;-65
2021/07/22 01:28:12;;;;;;;13.45;6.72;;;;;;;;;;6370179;22;20137;-65
2021/07/22 01:30:37;;;;;;;11.18;7.40;;;;;;;;;;6370739;22;20138;-65
2021/07/22 01:33:04;;;;;;;10.32;7.05;;;;;;;;;;6370924;22;20138;-65
2021/07/22 01:35:31;;;;;;;11.20;7.30;;;;;;;;;;6370609;22;20565;-65
2021/07/22 01:37:56;;;;;;;12.50;6.78;;;;;;;;;;6370538;22;20142;-65
2021/07/22 01:40:22;;;;;;;11.85;7.18;;;;;;;;;;6370592;22;20156;-65
2021/07/22 01:42:48;;;;;;;10.57;6.65;;;;;;;;;;6370492;22;20149;-65
2021/07/22 01:45:14;;;;;;;10.68;7.70;;;;;;;;;;6370431;22;20221;-65
2021/07/22 01:47:41;;;;;;;14.40;7.20;;;;;;;;;;6370539;22;20441;-65
2021/07/22 01:50:07;;;;;;;10.80;7.10;;;;;;;;;;6343056;22;20142;-65
2021/07/22 01:52:33;;;;;;;10.38;7.30;;;;;;;;;;6370843;22;20224;-65
2021/07/22 01:54:59;;;;;;;11.38;7.65;;;;;;;;;;6370397;22;20206;-65
2021/07/22 01:57:25;;;;;;;10.95;7.30;;;;;;;;;;6370433;22;20149;-65
2021/07/22 01:59:52;;;;;;;11.45;7.50;;;;;;;;;;6370640;22;20163;-65
2021/07/22 02:02:18;;;;;;;14.73;8.25;;;;;;;;;;6370775;22;20210;-64
2021/07/22 02:04:44;;;;;;;11.10;7.43;;;;;;;;;;6370609;22;20252;-65
2021/07/22 02:07:10;;;;;;;11.13;7.22;;;;;;;;;;6370352;22;20164;-65
2021/07/22 02:09:37;;;;;;;10.95;7.90;;;;;;;;;;6370712;22;20137;-65
2021/07/22 02:12:03;;;;;;;13.55;7.53;;;;;;;;;;6370453;22;20172;-65
2021/07/22 02:14:29;;;;;;;11.43;7.45;;;;;;;;;;6370615;22;20432;-65
2021/07/22 02:16:55;;;;;;;12.88;7.43;;;;;;;;;;6370385;22;20189;-65
2021/07/22 02:19:21;;;;;;;10.10;7.35;;;;;;;;;;6370526;22;20142;-65
2021/07/22 02:21:47;;;;;;;12.88;8.15;;;;;;;;;;6370291;22;20151;-65
2021/07/22 02:24:14;;;;;;;12.18;7.13;;;;;;;;;;6370066;22;20168;-65
2021/07/22 02:26:41;;;;;;;12.60;7.57;;;;;;;;;;6370588;22;20225;-64
2021/07/22 02:29:07;;;;;;;13.38;7.57;;;;;;;;;;6370113;22;20141;-65
2021/07/22 02:31:33;;;;;;;13.80;7.75;;;;;;;;;;6370459;22;20445;-65
2021/07/22 02:33:59;;;;;;;13.25;7.55;;;;;;;;;;6370395;22;20225;-65
2021/07/22 02:36:25;;;;;;;11.20;7.50;;;;;;;;;;6370213;22;20171;-65
2021/07/22 02:38:51;;;;;;;13.52;7.25;;;;;;;;;;6370378;22;20152;-65
2021/07/22 02:41:17;;;;;;;11.43;6.63;;;;;;;;;;6370239;22;20220;-65
2021/07/22 02:43:43;;;;;;;10.52;7.38;;;;;;;;;;6369982;22;20457;-65
2021/07/22 02:46:09;;;;;;;11.48;6.82;;;;;;;;;;6370279;22;20216;-65
2021/07/22 02:48:35;;;;;;;11.88;7.22;;;;;;;;;;6370531;22;20440;-65
2021/07/22 02:51:02;;;;;;;11.57;7.13;;;;;;;;;;6370267;22;20137;-65
2021/07/22 02:53:28;;;;;;;11.32;6.50;;;;;;;;;;6370356;22;20176;-65
2021/07/22 02:55:55;;;;;;;11.80;6.80;;;;;;;;;;6370532;22;20134;-65
2021/07/22 02:58:21;;;;;;;10.73;6.68;;;;;;;;;;6370322;22;20158;-65
2021/07/22 03:00:47;;;;;;;10.60;6.38;;;;;;;;;;6370326;22;20141;-64
2021/07/22 03:03:13;;;;;;;10.02;6.80;;;;;;;;;;6370856;22;20152;-65
2021/07/22 03:05:38;;;;;;;10.02;6.60;;;;;;;;;;6370328;22;20256;-65
2021/07/22 03:08:04;;;;;;;10.80;6.40;;;;;;;;;;6371013;22;20122;-65
2021/07/22 03:10:30;;;;;;;12.02;6.57;;;;;;;;;;6370609;22;20568;-65
2021/07/22 03:12:56;;;;;;;8.20;5.97;;;;;;;;;;6343214;22;20149;-65
2021/07/22 03:15:22;;;;;;;14.63;6.55;;;;;;;;;;6370911;22;20145;-65
2021/07/22 03:17:48;;;;;;;9.20;6.40;;;;;;;;;;6370685;22;20541;-65
2021/07/22 03:20:14;;;;;;;11.63;6.20;;;;;;;;;;6370919;22;20194;-65
2021/07/22 03:22:40;;;;;;;15.32;6.28;;;;;;;;;;6370641;22;20195;-65
2021/07/22 03:25:07;;;;;;;9.48;5.95;;;;;;;;;;6370448;22;20169;-65
2021/07/22 03:27:33;;;;;;;12.02;6.60;;;;;;;;;;6370537;22;20480;-65
2021/07/22 03:29:59;;;;;;;9.63;5.78;;;;;;;;;;6370528;22;20221;-65
2021/07/22 03:32:25;;;;;;;13.20;5.82;;;;;;;;;;6370597;22;20183;-65
2021/07/22 03:34:51;;;;;;;9.23;5.93;;;;;;;;;;6370506;22;20156;-65
2021/07/22 03:37:17;;;;;;;10.73;5.72;;;;;;;;;;6370585;22;20146;-65
2021/07/22 03:39:42;;;;;;;15.25;5.65;;;;;;;;;;6370507;22;20216;-65
2021/07/22 03:42:08;;;;;;;13.95;5.75;;;;;;;;;;6370582;22;20191;-65
2021/07/22 03:44:35;;;;;;;8.80;5.45;;;;;;;;;;6370325;22;20161;-65
2021/07/22 03:47:01;;;;;;;8.05;5.60;;;;;;;;;;6370553;22;20442;-65
2021/07/22 03:49:27;;;;;;;8.50;5.60;;;;;;;;;;6370759;22;20137;-65
2021/07/22 03:51:56;;;;;;;10.98;5.93;;;;;;;;;;6372391;22;20152;-65
2021/07/22 03:54:22;;;;;;;9.95;5.53;;;;;;;;;;6372382;22;20149;-65
2021/07/22 03:56:48;;;;;;;8.68;5.53;;;;;;;;;;6372462;22;20220;-65
2021/07/22 03:59:15;;;;;;;12.98;5.70;;;;;;;;;;6372469;22;20148;-65
2021/07/22 04:01:41;;;;;;;9.85;5.45;;;;;;;;;;6372679;22;20149;-65
2021/07/22 04:04:06;;;;;;;9.80;5.93;;;;;;;;;;6372647;22;20172;-65
2021/07/22 04:06:36;;;;;;;9.60;6.25;;;;;;;;;;6372302;22;20154;-65
2021/07/22 04:09:03;;;;;;;8.25;5.68;;;;;;;;;;6372653;22;20141;-65
2021/07/22 04:11:28;;;;;;;9.85;6.15;;;;;;;;;;6372229;22;20134;-65
2021/07/22 04:13:54;;;;;;;10.02;5.38;;;;;;;;;;6372212;22;20141;-65
2021/07/22 04:16:20;;;;;;;10.00;5.95;;;;;;;;;;6372290;22;20155;-65
2021/07/22 04:18:46;;;;;;;9.10;5.72;;;;;;;;;;6371996;22;20580;-65
2021/07/22 04:21:12;;;;;;;10.52;5.88;;;;;;;;;;6372122;22;20141;-65
2021/07/22 04:23:38;;;;;;;11.80;5.85;;;;;;;;;;6371816;22;20255;-65
2021/07/22 04:26:04;;;;;;;8.43;5.75;;;;;;;;;;6372121;22;20540;-65
2021/07/22 04:28:30;;;;;;;8.82;5.60;;;;;;;;;;6371794;22;20133;-65
2021/07/22 04:30:56;;;;;;;10.07;5.82;;;;;;;;;;6371646;22;20146;-65
2021/07/22 04:33:22;;;;;;;7.18;5.10;;;;;;;;;;6371566;22;20134;-65
2021/07/22 04:35:48;;;;;;;7.40;5.25;;;;;;;;;;6371889;22;20439;-65
2021/07/22 04:38:14;;;;;;;7.20;4.90;;;;;;;;;;6371640;22;20458;-65
2021/07/22 04:40:39;;;;;;;8.70;5.78;;;;;;;;;;6371476;22;20138;-65
2021/07/22 04:43:05;;;;;;;7.38;5.28;;;;;;;;;;6371482;22;20134;-65
2021/07/22 04:45:31;;;;;;;10.25;5.28;;;;;;;;;;6371277;22;20157;-65
2021/07/22 04:48:01;;;;;;;13.52;4.90;;;;;;;;;;6371861;22;20203;-65
2021/07/22 04:50:27;;;;;;;7.63;4.78;;;;;;;;;;6371155;22;20140;-65
2021/07/22 04:52:53;;;;;;;8.40;5.30;;;;;;;;;;6371212;22;20133;-65
2021/07/22 04:55:19;;;;;;;9.05;5.05;;;;;;;;;;6370965;22;20141;-65
2021/07/22 04:57:45;;;;;;;9.80;4.75;;;;;;;;;;6371175;22;20137;-64
2021/07/22 05:00:11;;;;;;;8.20;4.38;;;;;;;;;;6370933;22;20148;-65
2021/07/22 05:02:37;;;;;;;10.43;4.97;;;;;;;;;;6371027;22;20494;-64
2021/07/22 05:05:03;;;;;;;7.47;4.35;;;;;;;;;;6371037;22;20157;-64
2021/07/22 05:07:29;;;;;;;7.38;4.53;;;;;;;;;;6370820;22;20146;-64
2021/07/22 05:09:55;;;;;;;6.13;4.40;;;;;;;;;;6371140;22;20138;-64
2021/07/22 05:12:21;;;;;;;8.85;4.28;;;;;;;;;;6370995;22;20137;-64
2021/07/22 05:14:47;;;;;;;5.22;4.20;;;;;;;;;;6370963;22;20257;-64
2021/07/22 05:17:12;;;;;;;9.80;4.20;;;;;;;;;;6371165;22;20145;-65
2021/07/22 05:19:38;;;;;;;7.18;3.90;;;;;;;;;;6370980;22;20494;-64
2021/07/22 05:22:04;;;;;;;8.13;4.75;;;;;;;;;;6370851;22;20141;-65
2021/07/22 05:24:30;;;;;;;8.85;3.83;;;;;;;;;;6370747;22;20607;-67
2021/07/22 05:26:56;;;;;;;6.45;4.40;;;;;;;;;;6370784;22;20141;-64
2021/07/22 05:29:23;;;;;;;4.35;3.60;;;;;;;;;;6371280;22;20137;-64
2021/07/22 05:31:49;;;;;;;6.85;3.60;;;;;;;;;;6370738;22;20161;-64
2021/07/22 05:34:15;;;;;;;8.23;4.00;;;;;;;;;;6370815;22;20137;-65
2021/07/22 05:36:41;;;;;;;8.80;4.70;;;;;;;;;;6370685;22;20144;-64
2021/07/22 05:39:07;;;;;;;5.90;4.13;;;;;;;;;;6370751;22;20220;-64
2021/07/22 05:41:32;;;;;;;8.25;4.20;;;;;;;;;;6370617;22;20148;-64
2021/07/22 05:43:58;;;;;;;8.23;4.13;;;;;;;;;;6370542;22;20161;-64
2021/07/22 05:46:24;;;;;;;5.85;3.83;;;;;;;;;;6370517;22;20133;-65
2021/07/22 05:48:50;;;;;;;7.28;3.50;;;;;;;;;;6370956;22;20141;-65
2021/07/22 05:51:16;;;;;;;9.43;4.40;;;;;;;;;;6370468;22;20137;-65
2021/07/22 05:53:42;;;;;;;6.30;4.05;;;;;;;;;;6370845;22;20170;-63
2021/07/22 05:56:15;;;;;;;5.75;3.38;;;;;;;;;;6370761;22;20140;-64
2021/07/22 05:58:41;;;;;;;7.50;3.30;;;;;;;;;;6370875;22;20126;-64
2021/07/22 06:01:07;;;;;;;6.13;3.40;;;;;;;;;;6370324;22;20197;-65
2021/07/22 06:03:33;;;;;;;7.13;3.28;;;;;;;;;;6370246;22;20541;-65
2021/07/22 06:05:59;;;;;;;8.02;3.60;;;;;;;;;;6370119;22;20157;-64
2021/07/22 06:08:25;;;;;;;5.35;3.17;;;;;;;;;;6370357;22;20490;-64
2021/07/22 06:10:51;;;;;;;5.90;3.42;;;;;;;;;;6370219;22;20209;-65
2021/07/22 06:13:17;;;;;;;8.30;3.60;;;;;;;;;;6369950;22;20194;-65
2021/07/22 06:15:43;;;;;;;5.90;3.42;;;;;;;;;;6342812;22;20370;-65
2021/07/22 06:18:09;;;;;;;5.40;3.10;;;;;;;;;;6370190;22;20492;-65
2021/07/22 06:20:35;;;;;;;6.57;3.28;;;;;;;;;;6370199;22;20137;-66
2021/07/22 06:23:01;;;;;;;6.15;2.92;;;;;;;;;;6370013;22;20155;-64
2021/07/22 06:25:26;;;;;;;6.43;2.85;;;;;;;;;;6370099;22;20165;-64
2021/07/22 06:27:52;;;;;;;5.25;2.90;;;;;;;;;;6370041;22;20137;-65
2021/07/22 06:30:18;;;;;;;5.45;2.75;;;;;;;;;;6370189;22;20412;-65
2021/07/22 06:32:44;;;;;;;4.88;2.60;;;;;;;;;;6342601;22;20494;-64
2021/07/22 06:35:10;;;;;;;5.15;3.22;;;;;;;;;;6370238;22;20236;-64
2021/07/22 06:37:42;;;;;;;9.70;3.20;;;;;;;;;;6370368;22;20232;-64
2021/07/22 06:40:08;;;;;;;4.30;2.97;;;;;;;;;;6370087;22;20152;-64
2021/07/22 06:42:34;;;;;;;6.28;3.00;;;;;;;;;;6369979;22;20141;-64
2021/07/22 06:45:00;;;;;;;5.85;3.00;;;;;;;;;;6370042;22;20157;-64
2021/07/22 06:47:26;;;;;;;8.18;3.88;;;;;;;;;;6370052;22;20144;-64
2021/07/22 06:49:51;;;;;;;5.28;2.67;;;;;;;;;;6370186;22;20261;-64
2021/07/22 06:52:17;;;;;;;6.85;3.03;;;;;;;;;;6370097;22;20209;-65
2021/07/22 06:54:43;;;;;;;4.40;2.85;;;;;;;;;;6370228;22;20193;-64
2021/07/22 06:57:09;;;;;;;5.63;2.75;;;;;;;;;;6370015;22;20152;-64
2021/07/22 06:59:35;;;;;;;4.53;2.78;;;;;;;;;;6370226;22;20144;-64
2021/07/22 07:02:01;;;;;;;3.10;2.53;;;;;;;;;;6370189;22;20149;-65
2021/07/22 07:13:30;;;;;;;5.20;3.00;;;;;;;;;;5825169;22;20214;31
2021/07/22 07:31:06;;;;;;;5.63;2.83;;;;;;;;;;6258733;22;20546;-63
2021/07/22 07:47:58;;;;;;;4.45;2.40;;;;;;;;;;6209979;22;20197;31
2021/07/22 07:52:36;;;;;;;6.10;2.70;;;;;;;;;;6346815;22;22528;31
2021/07/22 08:01:41;;;;;;;4.55;2.58;;;;;;;;;;6134903;23;20219;31
2021/07/22 08:12:59;;;;;;;5.57;2.70;;;;;;;;;;6345871;22;20722;31
2021/07/22 08:19:36;;;;;;;5.30;2.58;;;;;;;;;;6289943;22;20523;31
2021/07/22 08:28:40;;;;;;;6.00;2.72;;;;;;;;;;6203618;22;20205;31
2021/07/22 08:40:09;;;;;;;5.07;2.30;;;;;;;;;;6204292;22;20531;31
2021/07/22 09:02:44;;;;;;;4.20;2.00;;;;;;;;;;6194426;22;20194;31
2021/07/22 09:06:50;;;;;;;5.22;2.80;;;;;;;;;;6167165;22;20518;-63
2021/07/22 09:16:12;;;;;;;6.00;2.70;;;;;;;;;;6224738;22;20200;31
2021/07/22 09:23:10;;;;;;;4.05;1.95;;;;;;;;;;6224738;22;20189;-63
2021/07/22 09:30:09;;;;;;;4.05;2.40;;;;;;;;;;6318354;22;20605;31
2021/07/22 09:55:31;;;;;;;10.13;2.92;;;;;;;;;;6335227;22;20537;-63
2021/07/22 09:57:56;;;;;;;2.80;2.15;;;;;;;;;;6301232;22;20195;31
2021/07/22 10:09:16;;;;;;;3.75;2.17;;;;;;;;;;6260692;22;20557;31
2021/07/22 10:16:25;;;;;;;5.22;2.30;;;;;;;;;;6290560;22;20519;-63
2021/07/22 10:23:05;;;;;;;3.63;2.20;;;;;;;;;;6322911;22;21664;31
2021/07/22 10:32:15;;;;;;;3.58;2.22;;;;;;;;;;6143768;23;20206;31
2021/07/22 10:39:19;;;;;;;4.38;2.08;;;;;;;;;;6289792;22;20207;31
2021/07/22 10:43:41;;;;;;;3.67;2.28;;;;;;;;;;6260890;22;20563;31
2021/07/22 10:53:15;;;;;;;;;;;;;;;;;;;;;
2021/07/22 11:07:31;;;;;;;2.17;1.58;;;;;;;;;;6288451;22;20203;31
2021/07/22 11:11:44;;;;;;;4.35;1.83;;;;;;;;;;6228451;22;20531;31
2021/07/22 11:18:17;;;;;;;6.32;2.50;;;;;;;;;;5862791;22;20617;31
2021/07/22 11:27:22;;;;;;;4.13;1.70;;;;;;;;;;6202766;22;20600;-64
2021/07/22 11:34:39;;;;;;;3.58;1.70;;;;;;;;;;6287947;22;20203;31
2021/07/22 11:46:05;;;;;;;2.95;1.55;;;;;;;;;;6289224;22;20580;31
2021/07/22 12:06:16;;;;;;;4.15;1.80;;;;;;;;;;6290269;22;20544;31
2021/07/22 12:13:23;;;;;;;4.68;1.70;;;;;;;;;;6322201;22;20541;31
2021/07/22 12:15:49;;;;;;;4.47;1.60;;;;;;;;;;6320613;22;20187;31
2021/07/22 12:20:05;;;;;;;4.47;1.60;;;;;;;;;;6322598;22;20526;31
2021/07/22 12:41:16;;;;;;;3.22;1.80;;;;;;;;;;6204199;22;21877;31
2021/07/22 13:13:29;;;;;;;2.78;1.65;;;;;;;;;;5306423;22;20628;-64
2021/07/22 13:15:56;;;;;;;4.50;1.85;;;;;;;;;;5289073;22;20214;-63
2021/07/22 13:18:22;;;;;;;6.13;1.83;;;;;;;;;;5287451;22;20253;-64
2021/07/22 13:20:48;;;;;;;3.63;2.13;;;;;;;;;;5196356;22;20606;-65
2021/07/22 13:30:02;;;;;;;3.05;1.60;;;;;;;;;;6346795;22;20540;31
2021/07/22 13:32:28;;;;;;;4.28;1.90;;;;;;;;;;6342565;22;20184;31
2021/07/22 13:39:41;;;;;;;5.25;1.70;;;;;;;;;;6225933;22;20209;31
2021/07/22 13:46:30;;;;;;;2.47;1.45;;;;;;;;;;6224948;22;20200;31
2021/07/22 13:53:40;;;;;;;3.80;1.40;;;;;;;;;;6343480;22;20203;31
2021/07/22 14:34:17;;;;;;;2.88;1.30;;;;;;;;;;6288534;22;20558;31
2021/07/22 14:48:00;;;;;;;4.07;1.50;;;;;;;;;;6287440;22;20203;31
2021/07/22 14:54:38;;;;;;;3.10;1.45;;;;;;;;;;6202768;22;20197;31
2021/07/22 14:58:48;;;;;;;4.05;1.35;;;;;;;;;;6285603;22;20563;31
2021/07/22 15:15:23;;;;;;;2.88;1.42;;;;;;;;;;6332610;22;20199;31
2021/07/22 15:33:20;;;;;;;3.97;1.38;;;;;;;;;;6260714;22;20685;31
2021/07/22 15:54:02;;;;;;;3.40;1.17;;;;;;;;;;6258313;22;21659;31
2021/07/22 16:10:19;;;;;;;4.00;1.30;;;;;;;;;;6225233;22;20208;31
2021/07/22 16:17:28;;;;;;;3.47;1.20;;;;;;;;;;6255771;22;20200;31
2021/07/22 16:24:33;;;;;;;3.30;1.13;;;;;;;;;;6286449;22;20200;31
2021/07/22 16:28:45;;;;;;;4.00;1.27;;;;;;;;;;6165212;22;20530;31
2021/07/22 16:37:50;;;;;;;3.83;1.45;;;;;;;;;;6191399;22;20198;31
2021/07/22 16:51:23;;;;;;;4.28;1.48;;;;;;;;;;6193688;22;20205;31
2021/07/22 16:53:50;;;;;;;2.72;1.48;;;;;;;;;;6219654;22;20294;-65
2021/07/22 16:56:16;;;;;;;3.38;1.60;;;;;;;;;;6224409;23;20167;-65
2021/07/22 16:58:42;;;;;;;3.80;1.50;;;;;;;;;;6223962;23;20135;-65
2021/07/22 17:01:08;;;;;;;4.07;1.73;;;;;;;;;;6223969;22;20140;-64
2021/07/22 17:03:34;;;;;;;4.82;1.75;;;;;;;;;;6224069;23;20295;-65
2021/07/22 17:06:00;;;;;;;3.65;1.55;;;;;;;;;;6223895;23;20144;-65
2021/07/22 17:08:27;;;;;;;3.65;1.60;;;;;;;;;;6224284;23;20176;-65
2021/07/22 17:10:55;;;;;;;1.88;1.30;;;;;;;;;;6224628;23;20476;-65
2021/07/22 17:13:21;;;;;;;3.28;1.30;;;;;;;;;;6223697;23;20496;-64
2021/07/22 17:15:46;;;;;;;4.63;1.60;;;;;;;;;;6223840;23;20136;-66
2021/07/22 17:18:12;;;;;;;6.07;1.90;;;;;;;;;;6223954;23;20333;-64
2021/07/22 17:20:38;;;;;;;3.35;1.50;;;;;;;;;;6223556;22;20266;-65
2021/07/22 17:23:04;;;;;;;3.67;1.50;;;;;;;;;;6224315;23;20136;-65
2021/07/22 17:25:30;;;;;;;2.88;1.83;;;;;;;;;;6224187;23;20151;-64
2021/07/22 17:27:57;;;;;;;3.33;1.75;;;;;;;;;;6223819;23;20171;-64
2021/07/22 17:30:23;;;;;;;4.53;1.92;;;;;;;;;;6224305;23;20148;-65
2021/07/22 17:32:49;;;;;;;2.75;1.65;;;;;;;;;;6224417;23;20218;-64
2021/07/22 17:35:14;;;;;;;7.05;2.00;;;;;;;;;;6224073;23;20144;-65
2021/07/22 17:37:40;;;;;;;4.05;1.52;;;;;;;;;;6224451;23;20151;-65
2021/07/22 17:40:07;;;;;;;2.67;1.70;;;;;;;;;;6224616;23;20222;-65
2021/07/22 17:42:33;;;;;;;2.90;1.63;;;;;;;;;;6224391;23;20140;-65
2021/07/22 17:44:59;;;;;;;4.47;1.70;;;;;;;;;;6224220;23;20163;-66
2021/07/22 17:47:25;;;;;;;4.03;2.25;;;;;;;;;;6224243;23;20584;-65
2021/07/22 17:49:51;;;;;;;2.60;1.80;;;;;;;;;;6197891;23;20152;-65
2021/07/22 17:52:17;;;;;;;5.40;2.13;;;;;;;;;;6224318;23;20201;-64
2021/07/22 17:54:43;;;;;;;2.65;2.30;;;;;;;;;;6224802;23;20217;-66
2021/07/22 17:57:09;;;;;;;3.17;1.92;;;;;;;;;;6224259;23;20144;-64
2021/07/22 17:59:34;;;;;;;4.80;2.03;;;;;;;;;;6218632;23;20220;-65
2021/07/22 18:02:01;;;;;;;2.83;1.90;;;;;;;;;;6217457;23;20532;-65
2021/07/22 18:04:27;;;;;;;4.45;2.00;;;;;;;;;;6217677;23;20191;-65
2021/07/22 18:06:53;;;;;;;6.63;2.08;;;;;;;;;;6217185;23;20160;-65
2021/07/22 18:09:19;;;;;;;3.67;2.10;;;;;;;;;;6217362;23;20546;-65
2021/07/22 18:11:45;;;;;;;3.47;1.90;;;;;;;;;;6217642;23;20148;-66
2021/07/22 18:14:11;;;;;;;4.85;2.42;;;;;;;;;;6217687;23;20215;-65
2021/07/22 18:16:37;;;;;;;3.78;1.88;;;;;;;;;;6217227;23;20626;-65
2021/07/22 18:19:04;;;;;;;3.80;2.08;;;;;;;;;;6217620;23;20202;-68
2021/07/22 18:21:30;;;;;;;4.20;2.50;;;;;;;;;;6217106;23;20156;-66
2021/07/22 18:23:56;;;;;;;4.25;2.75;;;;;;;;;;6217252;23;20224;-66
2021/07/22 18:26:22;;;;;;;4.22;2.53;;;;;;;;;;6217338;23;20145;-67
2021/07/22 18:28:48;;;;;;;5.68;3.08;;;;;;;;;;6217519;23;20251;-67
2021/07/22 18:31:35;;;;;;;2.45;2.22;;;;;;;;;;6217376;23;20557;-67
2021/07/22 18:34:10;;;;;;;7.03;2.85;;;;;;;;;;6217187;23;20148;-67
2021/07/22 18:36:42;;;;;;;3.92;2.65;;;;;;;;;;6217427;23;20210;-66
2021/07/22 18:39:09;;;;;;;4.63;2.60;;;;;;;;;;6217172;23;20476;-67
2021/07/22 18:41:35;;;;;;;4.63;2.80;;;;;;;;;;6217437;23;20155;-67
2021/07/22 18:44:01;;;;;;;3.85;2.80;;;;;;;;;;6217170;23;20202;-67
2021/07/22 18:46:27;;;;;;;2.92;2.55;;;;;;;;;;6216908;23;20152;-66
2021/07/22 18:48:53;;;;;;;5.63;2.63;;;;;;;;;;6216965;23;20179;-66
2021/07/22 18:51:19;;;;;;;4.40;2.90;;;;;;;;;;6217209;23;20152;-67
2021/07/22 18:53:45;;;;;;;6.72;2.67;;;;;;;;;;6217039;23;20144;-66
2021/07/22 18:56:11;;;;;;;7.65;3.05;;;;;;;;;;6216834;23;20198;-68
2021/07/22 18:58:38;;;;;;;4.47;2.90;;;;;;;;;;6216753;23;20144;-67
2021/07/22 19:01:05;;;;;;;5.95;3.03;;;;;;;;;;6216565;23;20585;-67
2021/07/22 19:03:32;;;;;;;4.40;2.75;;;;;;;;;;6216690;23;20624;-67
2021/07/22 19:05:58;;;;;;;3.53;2.67;;;;;;;;;;6216833;23;20223;-67
2021/07/22 19:10:12;;;;;;;3.88;2.83;;;;;;;;;;6258787;22;20556;31
2021/07/22 19:19:54;;;;;;;5.28;3.22;;;;;;;;;;6167133;22;20226;31
2021/07/22 19:24:04;;;;;;;4.13;2.65;;;;;;;;;;6292594;22;20543;31
2021/07/22 19:39:45;;;;;;;6.43;3.65;;;;;;;;;;6268887;22;20197;-65
2021/07/22 19:42:11;;;;;;;5.53;3.20;;;;;;;;;;6285738;22;20542;-67
2021/07/22 19:44:36;;;;;;;4.78;3.58;;;;;;;;;;6285804;22;20142;-66
2021/07/22 19:47:03;;;;;;;6.55;3.97;;;;;;;;;;6285466;22;20562;-65
2021/07/22 19:49:29;;;;;;;5.45;3.83;;;;;;;;;;6285386;22;20145;-67
2021/07/22 19:51:54;;;;;;;5.20;3.72;;;;;;;;;;6285169;22;20419;-65
2021/07/22 19:54:20;;;;;;;6.15;3.75;;;;;;;;;;6285216;22;20154;-65
2021/07/22 19:56:46;;;;;;;7.65;3.97;;;;;;;;;;6284585;22;20194;-65
2021/07/22 19:59:12;;;;;;;6.18;4.15;;;;;;;;;;6285332;22;20151;-65
2021/07/22 20:01:38;;;;;;;5.22;4.13;;;;;;;;;;6285108;22;20204;-67
2021/07/22 20:04:04;;;;;;;6.60;3.85;;;;;;;;;;6285091;22;20482;-65
2021/07/22 20:06:30;;;;;;;5.82;4.20;;;;;;;;;;6285180;22;20196;-67
2021/07/22 20:08:57;;;;;;;6.38;4.10;;;;;;;;;;6285107;22;20595;-66
2021/07/22 20:11:23;;;;;;;5.75;4.18;;;;;;;;;;6284991;22;20139;-66
2021/07/22 20:13:49;;;;;;;7.60;4.28;;;;;;;;;;6285039;22;20218;-66
2021/07/22 20:16:15;;;;;;;7.65;4.28;;;;;;;;;;6285113;22;20213;-67
2021/07/22 20:18:41;;;;;;;6.57;4.53;;;;;;;;;;6285123;22;20169;-66
2021/07/22 20:21:07;;;;;;;8.10;4.85;;;;;;;;;;6284717;22;20411;-66
2021/07/22 20:23:34;;;;;;;5.38;4.85;;;;;;;;;;6285142;22;20221;-66
2021/07/22 20:26:00;;;;;;;9.02;4.68;;;;;;;;;;6285171;22;20143;-67
2021/07/22 20:28:26;;;;;;;8.40;4.68;;;;;;;;;;6284643;22;20144;-67
2021/07/22 20:30:52;;;;;;;7.75;4.82;;;;;;;;;;6284993;22;20151;-66
2021/07/22 20:33:19;;;;;;;7.65;4.80;;;;;;;;;;6284665;22;20166;-65
2021/07/22 20:35:45;;;;;;;7.10;4.43;;;;;;;;;;6284614;22;20159;-64
2021/07/22 20:38:11;;;;;;;7.40;4.78;;;;;;;;;;6284615;22;20149;-64
2021/07/22 20:40:37;;;;;;;8.48;5.25;;;;;;;;;;6284963;22;20144;-64
2021/07/22 20:43:03;;;;;;;7.13;5.30;;;;;;;;;;6284527;22;20148;-64
2021/07/22 20:45:29;;;;;;;6.68;5.38;;;;;;;;;;6284876;22;20447;-65
2021/07/22 20:47:54;;;;;;;6.63;4.60;;;;;;;;;;6279603;22;20445;-64
2021/07/22 20:50:21;;;;;;;6.45;3.97;;;;;;;;;;6277771;22;20143;-65
2021/07/22 20:52:47;;;;;;;6.15;4.43;;;;;;;;;;6277694;22;20599;-64
2021/07/22 20:55:13;;;;;;;5.78;4.38;;;;;;;;;;6277633;22;20186;-64
2021/07/22 20:57:39;;;;;;;8.35;4.70;;;;;;;;;;6277538;22;20155;-64
2021/07/22 21:00:06;;;;;;;5.97;4.93;;;;;;;;;;6277615;22;20139;-65
2021/07/22 21:02:31;;;;;;;5.40;4.38;;;;;;;;;;6277851;22;20144;-65
2021/07/22 21:04:57;;;;;;;7.28;5.30;;;;;;;;;;6277584;22;20233;-65
2021/07/22 21:07:23;;;;;;;6.07;4.70;;;;;;;;;;6277457;22;20135;-66
2021/07/22 21:09:49;;;;;;;9.25;5.10;;;;;;;;;;6277578;22;20135;-68
2021/07/22 21:12:16;;;;;;;8.40;5.10;;;;;;;;;;6277402;22;20211;-68
2021/07/22 21:14:43;;;;;;;8.13;5.10;;;;;;;;;;6277422;22;20480;-66
2021/07/22 21:17:09;;;;;;;6.45;4.85;;;;;;;;;;6277739;22;20140;-68
2021/07/22 21:19:35;;;;;;;6.50;4.82;;;;;;;;;;6277842;22;20148;-68
2021/07/22 21:22:02;;;;;;;7.82;5.15;;;;;;;;;;6277356;22;20150;-66
2021/07/22 21:24:28;;;;;;;7.07;5.13;;;;;;;;;;6250616;22;20147;-68
2021/07/22 21:26:54;;;;;;;6.63;4.97;;;;;;;;;;6277686;22;20250;-68
2021/07/22 21:29:20;;;;;;;6.65;4.90;;;;;;;;;;6277390;22;20222;-66
2021/07/22 21:31:46;;;;;;;5.63;4.80;;;;;;;;;;6277494;22;20321;-67
2021/07/22 21:34:12;;;;;;;6.65;5.00;;;;;;;;;;6277398;22;20167;-67
2021/07/22 21:36:38;;;;;;;6.07;5.18;;;;;;;;;;6277368;22;20450;-66
2021/07/22 21:39:04;;;;;;;10.77;5.22;;;;;;;;;;6277440;22;20136;-67
2021/07/22 21:41:30;;;;;;;5.90;5.00;;;;;;;;;;6277435;22;20135;-67
2021/07/22 21:43:56;;;;;;;13.68;5.65;;;;;;;;;;6277364;22;20189;-68
2021/07/22 21:46:22;;;;;;;10.25;5.80;;;;;;;;;;6277393;22;20139;-67
2021/07/22 21:48:48;;;;;;;6.57;5.20;;;;;;;;;;6250573;22;20599;-67
2021/07/22 21:51:14;;;;;;;8.68;5.35;;;;;;;;;;6278174;22;20564;-67
2021/07/22 21:53:40;;;;;;;7.30;5.38;;;;;;;;;;6277417;22;20147;-67
2021/07/22 21:56:06;;;;;;;7.22;5.20;;;;;;;;;;6277522;22;20175;-67
2021/07/22 21:58:32;;;;;;;6.82;4.57;;;;;;;;;;6277228;22;20185;-67
2021/07/22 22:00:58;;;;;;;7.80;5.00;;;;;;;;;;6277774;22;20433;-66
2021/07/22 22:03:24;;;;;;;7.97;4.68;;;;;;;;;;6277900;22;20150;-66
2021/07/22 22:05:50;;;;;;;8.23;5.00;;;;;;;;;;6277589;22;20193;-66
2021/07/22 22:08:16;;;;;;;6.15;5.00;;;;;;;;;;6277368;22;20139;-67
2021/07/22 22:10:42;;;;;;;6.70;4.88;;;;;;;;;;6277762;22;20238;-66
2021/07/22 22:13:08;;;;;;;7.03;4.43;;;;;;;;;;6277551;22;20144;-66
2021/07/22 22:15:34;;;;;;;5.55;4.80;;;;;;;;;;6277186;22;20167;-66
2021/07/22 22:18:00;;;;;;;9.02;4.65;;;;;;;;;;6277163;22;20154;-66
2021/07/22 22:20:26;;;;;;;6.95;4.88;;;;;;;;;;6277267;22;20450;-68
2021/07/22 22:22:52;;;;;;;6.47;4.80;;;;;;;;;;6277223;22;20465;-66
2021/07/22 22:25:18;;;;;;;6.70;4.95;;;;;;;;;;6277633;22;20140;-68
2021/07/22 22:27:44;;;;;;;6.28;4.47;;;;;;;;;;6277476;22;20140;-66
2021/07/22 22:30:10;;;;;;;6.70;4.50;;;;;;;;;;6277526;22;20486;-66
2021/07/22 22:32:36;;;;;;;8.93;4.60;;;;;;;;;;6277045;22;20223;-68